Time;durP1;ratioP1;P1;durP2;ratioP2;P2;SDS_P1;SDS_P2;PMS_P1;PMS_P2;Temp;Humidity;BMP_temperature;BMP_pressure;BME280_temperature;BME280_humidity;BME280_pressure;Samples;Min_cycle;Max_cycle;Signal;HPM_P1;HPM_P2
2022/05/24 00:09:09;;;;;;;1.98;1.10;;;;;;;17.71;48.12;99881.94;18370287;32;20086;-66
2022/05/24 00:19:12;;;;;;;1.87;1.08;;;;;;;17.52;48.42;99865.97;18368236;32;20469;-66
2022/05/24 00:29:17;;;;;;;2.70;1.30;;;;;;;17.15;50.06;99878.81;18362018;32;20442;-66
2022/05/24 00:39:20;;;;;;;1.85;1.30;;;;;;;17.51;49.31;99864.25;18369163;32;20095;-66
2022/05/24 00:49:28;;;;;;;4.03;1.23;;;;;;;17.78;47.80;99858.78;18367105;32;20450;-66
2022/05/24 00:59:35;;;;;;;1.60;1.10;;;;;;;17.74;48.30;99855.41;18368474;32;20112;-66
2022/05/24 01:09:43;;;;;;;1.65;1.33;;;;;;;18.27;46.02;99841.81;18353202;32;20497;-66
2022/05/24 01:19:48;;;;;;;2.20;1.27;;;;;;;17.92;46.53;99857.34;18367311;32;20103;-66
2022/05/24 01:29:53;;;;;;;2.53;1.50;;;;;;;18.77;44.00;99823.78;18368583;32;20089;-66
2022/05/24 01:39:58;;;;;;;1.80;1.20;;;;;;;17.68;46.33;99823.13;18368821;32;20089;-66
2022/05/24 01:50:08;;;;;;;3.80;1.70;;;;;;;17.57;47.69;99840.28;18368359;32;20092;-66
2022/05/24 02:00:13;;;;;;;2.10;1.15;;;;;;;17.94;46.62;99855.53;18353684;32;20116;-66
2022/05/24 02:10:18;;;;;;;2.45;1.30;;;;;;;17.80;47.12;99869.28;18367937;32;20412;-66
2022/05/24 02:20:23;;;;;;;4.55;1.40;;;;;;;17.27;48.75;99876.63;18367485;32;20093;-66
2022/05/24 02:30:29;;;;;;;2.85;1.52;;;;;;;17.46;49.39;99853.03;18367158;32;20445;-66
2022/05/24 02:50:55;;;;;;;2.30;1.50;;;;;;;17.01;50.43;99892.53;18365948;32;20101;-66
2022/05/24 03:00:58;;;;;;;4.35;1.77;;;;;;;17.53;48.81;99887.94;18366966;32;20434;-66
2022/05/24 03:11:05;;;;;;;3.83;1.87;;;;;;;17.10;51.94;99901.00;18373070;32;20101;-66
2022/05/24 03:21:09;;;;;;;3.70;2.00;;;;;;;16.24;61.49;99919.75;18372812;32;20441;-66
2022/05/24 03:31:15;;;;;;;5.07;2.05;;;;;;;15.32;69.71;99940.13;18372365;32;20358;-66
2022/05/24 03:41:18;;;;;;;3.97;1.75;;;;;;;14.61;73.61;99946.41;18371971;32;20151;-66
2022/05/24 03:51:22;;;;;;;4.80;2.20;;;;;;;14.66;75.23;99948.94;18371902;32;20101;-66
2022/05/24 04:01:26;;;;;;;3.62;2.10;;;;;;;14.69;77.51;99965.47;18370068;32;20105;-66
2022/05/24 04:11:30;;;;;;;7.43;2.40;;;;;;;15.40;72.23;99962.69;18354535;32;20609;-66
2022/05/24 04:21:34;;;;;;;5.75;2.40;;;;;;;14.61;76.17;99958.72;18367263;32;20141;-66
2022/05/24 04:31:38;;;;;;;3.70;2.10;;;;;;;14.52;74.93;99983.44;18366991;32;20089;-66
2022/05/24 04:52:04;;;;;;;6.10;2.60;;;;;;;14.36;70.01;99986.44;18366713;32;20106;-67
2022/05/24 05:02:08;;;;;;;5.97;2.70;;;;;;;14.90;69.99;99989.47;18365294;32;72899;-66
2022/05/24 05:12:13;;;;;;;7.35;2.78;;;;;;;14.64;70.21;99987.50;18351806;32;20115;-67
2022/05/24 05:22:18;;;;;;;5.18;2.60;;;;;;;14.27;73.29;99999.78;18299433;32;20116;-67
2022/05/24 05:32:26;;;;;;;7.75;3.30;;;;;;;15.02;69.66;100006.69;18304951;32;20105;-66
2022/05/24 05:42:30;;;;;;;7.32;3.40;;;;;;;14.57;74.34;100010.47;18305524;32;20113;-66
2022/05/24 05:52:35;;;;;;;7.93;3.45;;;;;;;13.96;78.54;100019.75;18304988;32;20101;-66
2022/05/24 06:02:38;;;;;;;6.82;3.53;;;;;;;14.19;79.03;100033.25;18290147;32;20419;-66
2022/05/24 06:12:43;;;;;;;8.77;3.37;;;;;;;14.59;77.21;100039.28;18305105;32;20175;-67
2022/05/24 06:22:49;;;;;;;7.20;3.20;;;;;;;14.61;75.10;100048.88;18299997;32;20132;-66
2022/05/24 06:32:54;;;;;;;7.37;3.28;;;;;;;15.32;73.67;100046.19;18342593;32;20100;-66
2022/05/24 06:42:57;;;;;;;7.93;3.55;;;;;;;14.92;74.03;100050.75;18364088;32;20104;-66
2022/05/24 06:53:02;;;;;;;6.25;3.03;;;;;;;15.42;73.32;100053.81;18365405;32;20104;-67
2022/05/24 07:03:07;;;;;;;6.40;3.20;;;;;;;15.51;73.60;100056.19;18324803;32;20112;-67
2022/05/24 07:13:14;;;;;;;9.43;3.62;;;;;;;15.72;74.35;100061.75;18287936;32;20085;-67
2022/05/24 07:23:20;;;;;;;6.10;3.05;;;;;;;15.96;74.14;100033.87;18295246;32;20111;-67
2022/05/24 07:33:24;;;;;;;6.80;3.17;;;;;;;16.44;71.20;100035.00;18278435;32;20150;-67
2022/05/24 07:54:07;;;;;;;7.50;3.33;;;;;;;15.27;79.31;100040.22;18069924;32;20111;-66
2022/05/24 08:04:10;;;;;;;6.18;3.00;;;;;;;15.44;78.63;100045.00;18096702;32;20153;-66
2022/05/24 08:14:15;;;;;;;7.45;3.33;;;;;;;16.60;73.42;100050.34;18063860;32;20129;-66
2022/05/24 08:24:18;;;;;;;7.25;3.87;;;;;;;16.30;74.52;100045.13;18111811;32;20109;-66
2022/05/24 08:34:23;;;;;;;6.65;3.33;;;;;;;16.34;76.69;100049.41;18242774;32;20488;-66
2022/05/24 08:54:53;;;;;;;6.93;3.33;;;;;;;17.79;68.64;100037.37;18241907;32;20116;-66
2022/05/24 09:04:57;;;;;;;6.87;2.97;;;;;;;16.77;74.23;100050.59;18286443;32;20494;-67
2022/05/24 09:15:10;;;;;;;7.55;3.25;;;;;;;16.69;74.47;100035.97;18298844;32;20124;-66
2022/05/24 09:25:15;;;;;;;7.18;3.42;;;;;;;17.06;75.03;100040.87;18294743;32;20446;-67
2022/05/24 09:35:27;;;;;;;5.40;3.05;;;;;;;17.27;73.13;100035.78;18297686;32;20167;-67
2022/05/24 09:45:34;;;;;;;;;;;;;;;18.38;68.74;100023.69;18306158;32;20085;-66
2022/05/24 09:55:45;;;;;;;5.40;2.45;;;;;;;18.77;64.61;100033.53;18303965;32;20373;-67
2022/05/24 10:05:58;;;;;;;4.05;2.15;;;;;;;19.53;63.19;100046.12;18302647;32;20117;-67
2022/05/24 10:16:08;;;;;;;5.28;2.15;;;;;;;19.14;66.77;100036.38;18274309;32;20093;-68
2022/05/24 10:26:17;;;;;;;5.07;2.42;;;;;;;19.50;66.29;100048.91;18299705;32;20097;-66
2022/05/24 10:46:55;;;;;;;3.87;2.22;;;;;;;19.87;65.66;100013.72;18300276;32;20098;-67
2022/05/24 10:57:04;;;;;;;3.40;1.80;;;;;;;21.46;59.00;100004.03;18298997;32;20093;-67
2022/05/24 11:07:13;;;;;;;4.18;1.73;;;;;;;21.65;60.56;99990.62;18298086;32;20217;-66
2022/05/24 11:17:20;;;;;;;4.70;2.05;;;;;;;21.34;59.91;100010.88;18332202;32;20127;-66
2022/05/24 11:27:28;;;;;;;1.55;1.12;;;;;;;22.41;56.47;99991.69;18327671;32;20115;-67
2022/05/24 11:37:35;;;;;;;1.92;1.25;;;;;;;23.20;49.35;99983.50;18303689;32;20367;-67
2022/05/24 11:48:01;;;;;;;2.33;1.30;;;;;;;24.14;43.54;99977.66;18305224;32;20152;-67
2022/05/24 11:58:07;;;;;;;1.62;1.05;;;;;;;23.85;50.93;99973.25;18300564;32;20090;-67
2022/05/24 12:08:27;;;;;;;2.37;1.30;;;;;;;24.81;40.11;99960.78;18297508;32;20093;-66
2022/05/24 12:18:44;;;;;;;2.75;1.40;;;;;;;24.96;42.50;99937.50;18288264;32;20097;-67
2022/05/24 12:28:50;;;;;;;4.12;1.33;;;;;;;24.30;40.14;99940.19;18297911;32;20173;-67
2022/05/24 12:39:01;;;;;;;1.95;1.23;;;;;;;24.68;41.77;99928.72;18286675;32;20108;-66
2022/05/24 12:49:08;;;;;;;2.30;1.10;;;;;;;24.44;44.17;99910.75;18300502;32;20461;-66
2022/05/24 12:59:15;;;;;;;2.87;1.33;;;;;;;25.52;37.08;99917.53;18288629;32;20103;-67
2022/05/24 13:09:21;;;;;;;2.83;1.20;;;;;;;25.28;39.55;99906.75;18221324;32;20144;-66
2022/05/24 13:19:26;;;;;;;2.95;1.45;;;;;;;24.91;39.90;99902.25;18220949;32;20098;-67
2022/05/24 13:33:33;;;;;;;2.30;1.30;;;;;;;25.52;37.96;99890.81;18222521;32;20405;-66
2022/05/24 13:39:59;;;;;;;2.12;1.37;;;;;;;25.66;39.62;99875.56;18240908;32;20082;-67
2022/05/24 13:50:18;;;;;;;2.95;1.20;;;;;;;25.47;39.28;99877.75;18235212;32;20106;-66
2022/05/24 14:00:33;;;;;;;3.37;1.73;;;;;;;24.76;39.80;99877.44;18044685;32;20114;-66
2022/05/24 14:10:38;;;;;;;3.37;1.48;;;;;;;25.11;40.12;99865.25;18085238;32;20140;-66
2022/05/24 14:20:43;;;;;;;2.33;1.30;;;;;;;24.80;41.19;99871.81;18191952;32;20098;-66
2022/05/24 14:30:48;;;;;;;6.80;1.62;;;;;;;25.28;39.45;99872.91;18278946;32;20121;-66
2022/05/24 14:40:53;;;;;;;2.60;1.62;;;;;;;24.71;39.52;99875.09;18297713;32;20090;-66
2022/05/24 14:50:56;;;;;;;2.95;1.70;;;;;;;24.96;38.13;99865.41;18299506;32;20145;-66
2022/05/24 15:01:01;;;;;;;3.37;1.83;;;;;;;24.46;41.45;99883.97;18290282;32;20339;-66
2022/05/24 15:21:27;;;;;;;;;;;;;;;24.77;39.99;99860.47;18304216;32;20096;-66
2022/05/24 15:31:30;;;;;;;2.15;1.42;;;;;;;25.76;38.24;99860.56;18306730;32;19985;-67
2022/05/24 15:41:36;;;;;;;2.45;1.55;;;;;;;24.53;39.52;99871.94;18289833;32;20135;-67
2022/05/24 15:51:39;;;;;;;3.80;1.60;;;;;;;24.42;41.00;99863.78;18288607;32;20101;-66
2022/05/24 16:01:44;;;;;;;3.15;1.67;;;;;;;24.10;41.92;99870.38;18302045;32;20120;-66
2022/05/24 16:11:50;;;;;;;3.47;1.60;;;;;;;24.34;41.77;99857.19;18305800;32;20431;-66
2022/05/24 16:21:55;;;;;;;2.45;1.65;;;;;;;24.19;41.03;99861.75;18293216;32;20151;-67
2022/05/24 16:31:58;;;;;;;2.65;1.58;;;;;;;24.04;43.43;99865.44;18305831;32;20429;-66
2022/05/24 16:42:03;;;;;;;3.60;1.40;;;;;;;23.95;41.89;99870.41;18287107;32;20188;-66
2022/05/24 16:52:08;;;;;;;3.08;1.50;;;;;;;24.15;40.69;99862.91;18305142;32;20101;-66
2022/05/24 17:02:14;;;;;;;2.78;1.55;;;;;;;24.09;41.80;99876.66;18300767;32;20116;-67
2022/05/24 17:12:17;;;;;;;2.97;1.42;;;;;;;23.41;44.35;99861.47;18285871;32;20729;-66
2022/05/24 17:22:23;;;;;;;2.87;1.52;;;;;;;23.64;43.00;99875.12;18289010;32;20138;-66
2022/05/24 17:32:29;;;;;;;3.83;1.70;;;;;;;23.19;44.32;99867.31;18300227;32;20117;-66
2022/05/24 17:42:35;;;;;;;3.42;1.67;;;;;;;22.78;46.26;99868.09;18289457;32;20101;-66
2022/05/24 17:52:38;;;;;;;4.20;1.87;;;;;;;22.81;46.17;99875.88;18288778;32;20093;-66
2022/05/24 18:02:44;;;;;;;6.55;2.90;;;;;;;22.33;49.91;99876.12;18297741;32;20099;-66
2022/05/24 18:12:47;;;;;;;14.63;7.85;;;;;;;22.00;52.61;99893.97;18283935;32;20112;-66
2022/05/24 18:22:55;;;;;;;7.10;3.20;;;;;;;21.35;55.72;99901.97;18288024;32;20093;-67
2022/05/24 18:33:07;;;;;;;3.53;2.05;;;;;;;21.25;55.63;99915.84;18299348;32;20730;-67
2022/05/24 18:43:12;;;;;;;5.25;2.28;;;;;;;21.00;57.42;99949.00;18283419;32;20128;-67
2022/05/24 18:53:16;;;;;;;5.72;2.40;;;;;;;20.36;58.98;99950.41;18286584;32;20119;-67
2022/05/24 19:03:20;;;;;;;7.70;3.08;;;;;;;19.79;62.12;99972.56;18283005;32;20521;-67
2022/05/24 19:13:24;;;;;;;7.00;3.00;;;;;;;19.48;63.24;99968.72;18285541;32;20098;-67
2022/05/24 19:23:29;;;;;;;11.88;4.60;;;;;;;19.31;64.42;99998.63;18294715;32;20362;-66
2022/05/24 19:33:32;;;;;;;9.57;4.47;;;;;;;19.20;64.31;99996.44;18296367;32;20093;-66
2022/05/24 19:43:36;;;;;;;9.55;4.32;;;;;;;19.26;63.41;100006.75;18307751;32;20086;-67
2022/05/24 19:53:40;;;;;;;7.03;3.20;;;;;;;19.15;64.71;100003.72;18340419;32;20108;-66
2022/05/24 20:03:44;;;;;;;11.52;4.35;;;;;;;18.71;67.14;100010.84;18294584;32;20161;-66
2022/05/24 20:13:48;;;;;;;8.98;4.10;;;;;;;18.64;66.96;100019.97;18289103;32;20094;-66
2022/05/24 20:23:53;;;;;;;8.18;3.55;;;;;;;18.49;68.06;100036.44;18301388;32;20112;-66
2022/05/24 20:33:56;;;;;;;8.27;3.65;;;;;;;18.88;66.91;100050.72;18301239;32;20115;-66
2022/05/24 20:44:00;;;;;;;9.50;3.45;;;;;;;18.86;66.46;100032.25;18306390;32;20438;-66
2022/05/24 20:54:04;;;;;;;7.60;3.53;;;;;;;18.39;67.81;100034.19;18291962;32;20176;-66
2022/05/24 21:04:08;;;;;;;7.07;3.25;;;;;;;18.20;68.82;100052.56;18287496;32;20128;-66
2022/05/24 21:14:14;;;;;;;7.12;3.20;;;;;;;18.14;68.51;100040.47;18302469;32;20108;-65
2022/05/24 21:24:17;;;;;;;8.77;3.60;;;;;;;18.11;69.25;100024.72;18242598;32;20175;-63
2022/05/24 21:34:22;;;;;;;7.03;3.42;;;;;;;17.93;69.96;100028.09;18229719;32;20416;-63
2022/05/24 21:44:25;;;;;;;6.95;3.03;;;;;;;18.16;69.53;100024.53;18243261;32;20103;-63
2022/05/24 21:54:30;;;;;;;4.68;2.78;;;;;;;18.48;68.55;100034.72;18242175;32;20095;-63
2022/05/24 22:04:33;;;;;;;6.00;2.90;;;;;;;18.46;68.64;100028.66;18240940;32;20094;-63
2022/05/24 22:14:39;;;;;;;5.72;3.20;;;;;;;18.48;68.34;100051.47;18241404;32;20109;-64
2022/05/24 22:24:42;;;;;;;6.43;3.25;;;;;;;17.92;69.23;100069.47;18241113;32;20090;-64
2022/05/24 22:34:47;;;;;;;4.85;2.85;;;;;;;18.11;66.91;100148.87;18240514;32;20116;-63
2022/05/24 22:44:56;;;;;;;5.05;2.35;;;;;;;19.06;64.41;100137.25;18239956;32;20108;-64
2022/05/24 22:55:01;;;;;;;5.97;3.00;;;;;;;18.84;64.99;100130.19;18239044;32;20094;-64
2022/05/24 23:05:06;;;;;;;6.55;2.97;;;;;;;18.53;69.60;100131.41;18238319;32;20112;-64
2022/05/24 23:15:11;;;;;;;8.27;3.20;;;;;;;18.45;71.15;100125.59;18238194;32;20104;-64
2022/05/24 23:25:14;;;;;;;7.10;3.53;;;;;;;17.54;77.27;100143.84;18245683;32;20391;-65
2022/05/24 23:35:19;;;;;;;8.43;3.83;;;;;;;17.31;79.90;100169.28;18245640;32;20102;-65
2022/05/24 23:45:22;;;;;;;7.07;3.12;;;;;;;17.81;75.87;100064.56;18245263;32;20094;-66
2022/05/24 23:55:27;;;;;;;7.68;3.53;;;;;;;17.76;75.19;100063.91;18244854;32;20125;-65
